createdAt,value
2018-06-19T00:00:42.387Z,23.14
2018-06-19T00:01:42.345Z,23.12
2018-06-19T00:02:42.309Z,23.12
2018-06-19T00:03:42.265Z,23.17
2018-06-19T00:04:42.223Z,23.14
2018-06-19T00:05:42.186Z,23.09
2018-06-19T00:06:42.136Z,23.15
2018-06-19T00:07:42.098Z,23.15
2018-06-19T00:08:42.059Z,23.19
2018-06-19T00:09:42.017Z,23.12
2018-06-19T00:10:41.970Z,23.15
2018-06-19T00:11:41.928Z,23.12
2018-06-19T00:12:41.891Z,23.14
2018-06-19T00:13:41.846Z,23.15
2018-06-19T00:14:41.809Z,23.12
2018-06-19T00:15:41.772Z,23.17
2018-06-19T00:16:41.725Z,23.17
2018-06-19T00:17:41.685Z,23.20
2018-06-19T00:18:41.641Z,23.15
2018-06-19T00:19:41.599Z,23.12
2018-06-19T00:20:41.562Z,23.23
2018-06-19T00:21:41.515Z,23.17
2018-06-19T00:22:41.478Z,23.14
2018-06-19T00:23:41.434Z,23.17
2018-06-19T00:24:41.392Z,23.12
2018-06-19T00:25:41.398Z,23.19
2018-06-19T00:26:41.312Z,23.07
2018-06-19T00:27:41.270Z,23.23
2018-06-19T00:28:41.229Z,23.20
2018-06-19T00:29:41.188Z,23.17
2018-06-19T00:30:41.142Z,23.08
2018-06-19T00:31:41.102Z,23.22
2018-06-19T00:32:41.061Z,23.14
2018-06-19T00:33:41.018Z,23.19
2018-06-19T00:34:40.979Z,23.11
2018-06-19T00:35:40.938Z,23.15
2018-06-19T00:36:40.898Z,23.20
2018-06-19T00:37:40.855Z,23.17
2018-06-19T00:38:40.809Z,23.14
2018-06-19T00:39:40.769Z,23.17
2018-06-19T00:40:40.731Z,23.15
2018-06-19T00:41:40.689Z,23.17
2018-06-19T00:42:40.644Z,23.19
2018-06-19T00:43:40.606Z,23.17
2018-06-19T00:44:40.562Z,23.17
2018-06-19T00:45:40.520Z,23.19
2018-06-19T00:46:40.482Z,23.23
2018-06-19T00:47:40.440Z,23.22
2018-06-19T00:48:40.399Z,23.15
2018-06-19T00:49:40.358Z,23.19
2018-06-19T00:50:40.318Z,23.26
2018-06-19T00:51:40.270Z,23.17
2018-06-19T00:52:40.230Z,23.20
2018-06-19T00:53:40.185Z,23.17
2018-06-19T00:54:40.150Z,23.20
2018-06-19T00:55:40.107Z,23.23
2018-06-19T00:56:40.064Z,23.24
2018-06-19T00:57:40.022Z,23.19
2018-06-19T00:58:39.984Z,23.17
2018-06-19T00:59:39.945Z,23.23
2018-06-19T01:00:39.901Z,23.26
2018-06-19T01:01:39.860Z,23.20
2018-06-19T01:02:39.814Z,23.32
2018-06-19T01:03:39.774Z,23.27
2018-06-19T01:04:39.733Z,23.29
2018-06-19T01:05:39.690Z,23.27
2018-06-19T01:06:39.653Z,23.19
2018-06-19T01:07:39.611Z,23.23
2018-06-19T01:08:39.569Z,23.23
2018-06-19T01:09:39.530Z,23.23
2018-06-19T01:10:39.483Z,23.24
2018-06-19T01:11:39.443Z,23.22
2018-06-19T01:12:39.400Z,23.29
2018-06-19T01:13:39.362Z,23.20
2018-06-19T01:14:39.317Z,23.15
2018-06-19T01:15:39.278Z,23.27
2018-06-19T01:16:39.236Z,23.32
2018-06-19T01:17:39.197Z,23.23
2018-06-19T01:18:39.157Z,23.27
2018-06-19T01:19:39.114Z,23.20
2018-06-19T01:20:39.073Z,23.26
2018-06-19T01:21:39.031Z,23.22
2018-06-19T01:22:38.985Z,23.22
2018-06-19T01:23:38.948Z,23.29
2018-06-19T01:24:38.904Z,23.27
2018-06-19T01:25:38.859Z,23.26
2018-06-19T01:26:38.825Z,23.29
2018-06-19T01:27:38.780Z,23.23
2018-06-19T01:28:38.782Z,23.26
2018-06-19T01:29:38.695Z,23.23
2018-06-19T01:30:38.658Z,23.23
2018-06-19T01:31:38.617Z,23.19
2018-06-19T01:32:38.575Z,23.12
2018-06-19T01:33:38.535Z,23.15
2018-06-19T01:34:38.488Z,23.22
2018-06-19T01:35:38.447Z,23.22
2018-06-19T01:36:38.406Z,23.24
2018-06-19T01:37:38.364Z,23.20
2018-06-19T01:38:38.327Z,23.17
2018-06-19T01:39:38.288Z,23.17
2018-06-19T01:40:38.243Z,23.17
2018-06-19T01:41:38.203Z,23.14
2018-06-19T01:42:38.155Z,23.20
2018-06-19T01:43:38.117Z,23.17
2018-06-19T01:44:38.079Z,23.17
2018-06-19T01:45:38.038Z,23.22
2018-06-19T01:46:37.995Z,23.22
2018-06-19T01:47:37.952Z,23.17
2018-06-19T01:48:37.908Z,23.15
2018-06-19T01:49:37.867Z,23.19
2018-06-19T01:50:37.832Z,23.15
2018-06-19T01:51:37.789Z,23.15
2018-06-19T01:52:37.746Z,23.14
2018-06-19T01:53:37.707Z,23.20
2018-06-19T01:54:37.661Z,23.14
2018-06-19T01:55:37.619Z,23.15
2018-06-19T01:56:37.578Z,23.14
2018-06-19T01:57:37.535Z,23.20
2018-06-19T01:58:37.499Z,23.17
2018-06-19T01:59:37.456Z,23.17
2018-06-19T02:00:37.413Z,23.15
2018-06-19T02:01:37.369Z,23.17
2018-06-19T02:02:37.332Z,23.23
2018-06-19T02:03:37.344Z,23.19
2018-06-19T02:04:37.250Z,23.19
2018-06-19T02:05:37.209Z,23.14
2018-06-19T02:06:37.162Z,23.12
2018-06-19T02:07:37.121Z,23.15
2018-06-19T02:08:37.084Z,23.17
2018-06-19T02:09:37.037Z,23.14
2018-06-19T02:10:37.001Z,23.20
2018-06-19T02:11:36.961Z,23.17
2018-06-19T02:12:36.917Z,23.17
2018-06-19T02:13:36.880Z,23.17
2018-06-19T02:14:36.831Z,23.17
2018-06-19T02:15:36.789Z,23.15
2018-06-19T02:16:36.753Z,23.15
2018-06-19T02:17:36.721Z,23.15
2018-06-19T02:18:36.666Z,23.17
2018-06-19T02:19:36.625Z,23.14
2018-06-19T02:20:36.583Z,23.15
2018-06-19T02:21:36.541Z,23.15
2018-06-19T02:22:36.502Z,23.23
2018-06-19T02:23:36.461Z,23.19
2018-06-19T02:24:36.420Z,23.14
2018-06-19T02:25:36.378Z,23.22
2018-06-19T02:26:36.333Z,23.23
2018-06-19T02:27:36.293Z,23.15
2018-06-19T02:28:36.253Z,23.19
2018-06-19T02:29:36.207Z,23.22
2018-06-19T02:30:36.217Z,23.27
2018-06-19T02:31:36.130Z,23.24
2018-06-19T02:32:36.086Z,23.24
2018-06-19T02:33:36.049Z,23.19
2018-06-19T02:34:36.011Z,23.22
2018-06-19T02:35:35.964Z,23.15
2018-06-19T02:36:35.921Z,23.15
2018-06-19T02:37:35.881Z,23.20
2018-06-19T02:38:35.836Z,23.17
2018-06-19T02:39:35.806Z,23.20
2018-06-19T02:40:35.799Z,23.09
2018-06-19T02:41:35.711Z,23.19
2018-06-19T02:42:35.678Z,23.05
2018-06-19T02:43:35.632Z,23.08
2018-06-19T02:44:35.591Z,23.22
2018-06-19T02:45:35.552Z,23.08
2018-06-19T02:46:35.503Z,23.07
2018-06-19T02:47:35.464Z,23.17
2018-06-19T02:48:35.435Z,23.04
2018-06-19T02:49:35.387Z,23.07
2018-06-19T02:50:35.338Z,23.17
2018-06-19T02:51:35.300Z,23.19
2018-06-19T02:52:35.258Z,23.14
2018-06-19T02:53:35.213Z,23.14
2018-06-19T02:54:35.177Z,23.07
2018-06-19T02:55:35.134Z,23.17
2018-06-19T02:56:35.092Z,23.08
2018-06-19T02:57:35.056Z,23.08
2018-06-19T02:58:35.007Z,23.09
2018-06-19T02:59:34.966Z,23.09
2018-06-19T03:00:34.929Z,23.11
2018-06-19T03:01:34.885Z,23.09
2018-06-19T03:02:34.889Z,23.08
2018-06-19T03:03:34.804Z,23.08
2018-06-19T03:04:34.803Z,23.14
2018-06-19T03:05:34.713Z,23.08
2018-06-19T03:06:34.685Z,23.15
2018-06-19T03:07:34.636Z,23.08
2018-06-19T03:08:34.595Z,23.09
2018-06-19T03:09:34.554Z,23.12
2018-06-19T03:10:34.509Z,23.12
2018-06-19T03:11:34.470Z,23.07
2018-06-19T03:12:34.425Z,23.09
2018-06-19T03:13:34.390Z,23.11
2018-06-19T03:14:34.348Z,23.12
2018-06-19T03:15:34.309Z,23.09
2018-06-19T03:16:34.262Z,23.11
2018-06-19T03:17:34.227Z,23.04
2018-06-19T03:18:34.175Z,23.09
2018-06-19T03:19:34.139Z,23.11
2018-06-19T03:20:34.096Z,23.09
2018-06-19T03:21:34.056Z,23.05
2018-06-19T03:22:34.011Z,23.07
2018-06-19T03:23:33.972Z,23.09
2018-06-19T03:24:33.928Z,23.09
2018-06-19T03:25:33.881Z,22.99
2018-06-19T03:26:33.848Z,23.09
2018-06-19T03:27:33.806Z,23.08
2018-06-19T03:28:33.763Z,23.07
2018-06-19T03:29:33.723Z,23.11
2018-06-19T03:30:33.683Z,23.07
2018-06-19T03:31:33.637Z,23.04
2018-06-19T03:32:33.598Z,23.08
2018-06-19T03:33:33.552Z,23.05
2018-06-19T03:34:33.517Z,23.07
2018-06-19T03:35:33.473Z,23.07
2018-06-19T03:36:33.430Z,23.01
2018-06-19T03:37:33.386Z,23.11
2018-06-19T03:38:33.396Z,22.96
2018-06-19T03:39:33.308Z,23.01
2018-06-19T03:40:33.266Z,23.07
2018-06-19T03:41:33.226Z,23.08
